This is the latest recevied weather packets stored in our database for station/object CE2KVL-1. If no packets are shown the sender has not sent any weather packets the latest 10 day(s).
| Time | Temp. | Humidity | Pressure | Rain* | Wind** | Luminosity | Snow |
|---|---|---|---|---|---|---|---|
| 1777855681 | 15.56° C | 84% | 1023.4 hPa | - | - | - | - |
| 1777855381 | 16.11° C | 81% | 1023.3 hPa | - | - | - | - |
| 1777855082 | 16.11° C | 84% | 1022.7 hPa | - | - | - | - |
| 1777854781 | 16.11° C | 82% | 1023.4 hPa | - | - | - | - |
| 1777854481 | 16.11° C | 82% | 1023.2 hPa | - | - | - | - |
| 1777854181 | 16.11° C | 80% | 1023.6 hPa | - | - | - | - |
| 1777853881 | 16.67° C | 75% | 1022.7 hPa | - | - | - | - |
| 1777853582 | 16.67° C | 77% | 1023.1 hPa | - | - | - | - |
| 1777853282 | 16.67° C | 72% | 1022.6 hPa | - | - | - | - |
| 1777852982 | 16.67° C | 77% | 1023.2 hPa | - | - | - | - |
| 1777852682 | 17.22° C | 79% | 1022.9 hPa | - | - | - | - |
| 1777852381 | 17.22° C | 78% | 1023.4 hPa | - | - | - | - |
| 1777852081 | 17.78° C | 70% | 1023.4 hPa | - | - | - | - |
| 1777851781 | 18.33° C | 69% | 1024.2 hPa | - | - | - | - |
| 1777851482 | 19.44° C | 40% | 1022.3 hPa | - | - | - | - |
| 1777851181 | 20° C | 44% | 1020.4 hPa | - | - | - | - |
| 1777850881 | 19.44° C | 41% | 1022.2 hPa | - | - | - | - |
| 1777850581 | 19.44° C | 53% | 1022.4 hPa | - | - | - | - |
| 1777850281 | 20° C | 41% | 1021.5 hPa | - | - | - | - |
| 1777849982 | 20° C | 41% | 1021.1 hPa | - | - | - | - |
| 1777849681 | 19.44° C | 40% | 1021.7 hPa | - | - | - | - |
| 1777849381 | 20° C | 39% | 1021.4 hPa | - | - | - | - |
| 1777849081 | 20° C | 42% | 1021.8 hPa | - | - | - | - |
| 1777848781 | 20° C | 39% | 1021.2 hPa | - | - | - | - |
| 1777848481 | 20° C | 39% | 1020.6 hPa | - | - | - | - |
* Rain since midnight (hover to see other rain measurements)
** Current wind speed in m/s (hover to see current wind gust speed)